Time;durP1;ratioP1;P1;durP2;ratioP2;P2;SDS_P1;SDS_P2;PMS_P1;PMS_P2;Temp;Humidity;BMP_temperature;BMP_pressure;BME280_temperature;BME280_humidity;BME280_pressure;Samples;Min_cycle;Max_cycle;Signal;HPM_P1;HPM_P2
2020/12/06 00:00:59;;;;;;;14.60;11.10;;;3.90;99.90;;;;;;5099606;28;20428;-81
2020/12/06 00:03:25;;;;;;;18.13;10.20;;;3.90;99.90;;;;;;5083222;28;20246;-82
2020/12/06 00:05:50;;;;;;;21.97;13.00;;;4.00;99.90;;;;;;5083100;28;20501;-83
2020/12/06 00:08:16;;;;;;;16.50;10.93;;;4.00;99.90;;;;;;5069819;28;20154;-83
2020/12/06 00:10:57;;;;;;;13.80;10.20;;;4.00;99.90;;;;;;5103481;28;20222;-81
2020/12/06 00:13:25;;;;;;;13.80;11.33;;;4.00;99.90;;;;;;5105815;28;20155;-82
2020/12/06 00:15:51;;;;;;;17.63;10.40;;;4.00;99.90;;;;;;5086616;28;20409;-81
2020/12/06 00:18:17;;;;;;;13.10;9.07;;;4.00;99.90;;;;;;5104812;28;20718;-83
2020/12/06 00:20:43;;;;;;;12.63;10.33;;;4.10;99.90;;;;;;5086207;28;20449;-83
2020/12/06 00:23:09;;;;;;;19.77;11.43;;;4.10;99.90;;;;;;5084035;28;20391;-82
2020/12/06 00:25:35;;;;;;;18.27;9.77;;;4.10;99.90;;;;;;5072127;28;20429;-83
2020/12/06 00:28:01;;;;;;;15.27;9.80;;;4.10;99.90;;;;;;5104611;28;20356;-84
2020/12/06 00:30:27;;;;;;;16.53;9.40;;;4.10;99.90;;;;;;5068717;28;20155;-84
2020/12/06 00:32:53;;;;;;;20.77;10.20;;;4.20;99.90;;;;;;5087688;28;20413;-83
2020/12/06 00:35:19;;;;;;;18.00;10.27;;;4.20;99.90;;;;;;5104716;28;20363;-83
2020/12/06 00:37:45;;;;;;;21.20;9.70;;;4.20;99.90;;;;;;5104068;28;20167;-81
2020/12/06 00:40:10;;;;;;;16.90;9.63;;;4.20;99.90;;;;;;5088240;28;20163;-83
2020/12/06 00:42:37;;;;;;;19.07;10.77;;;4.20;99.90;;;;;;5106777;28;20159;-83
2020/12/06 00:45:04;;;;;;;14.70;9.80;;;4.20;99.90;;;;;;5080900;28;20658;-81
2020/12/06 00:47:30;;;;;;;20.43;10.70;;;4.20;99.90;;;;;;5085084;28;20474;-83
2020/12/06 00:49:56;;;;;;;16.80;9.63;;;4.20;99.90;;;;;;5083577;28;20845;-84
2020/12/06 00:52:22;;;;;;;16.20;9.40;;;4.20;99.90;;;;;;5067516;28;20577;-82
2020/12/06 00:54:48;;;;;;;15.43;9.60;;;4.30;99.90;;;;;;5066235;28;20160;-84
2020/12/06 00:57:13;;;;;;;11.03;8.00;;;4.30;99.90;;;;;;5067518;28;20155;-83
2020/12/06 00:59:39;;;;;;;20.03;10.57;;;4.30;99.90;;;;;;5101245;28;20179;-83
2020/12/06 01:02:06;;;;;;;11.80;10.03;;;4.20;99.90;;;;;;5106103;28;20194;-82
2020/12/06 01:04:32;;;;;;;13.03;8.97;;;4.20;99.90;;;;;;5105052;28;20252;-82
2020/12/06 01:07:00;;;;;;;12.13;9.73;;;4.20;99.90;;;;;;5086532;28;20456;-83
2020/12/06 01:09:26;;;;;;;19.43;10.10;;;4.30;99.90;;;;;;5104799;28;20429;-82
2020/12/06 01:11:58;;;;;;;19.10;10.57;;;4.30;99.90;;;;;;5103930;28;20423;-81
2020/12/06 01:14:24;;;;;;;20.03;12.63;;;4.30;99.90;;;;;;5088664;28;20385;-83
2020/12/06 01:16:50;;;;;;;24.87;12.20;;;4.30;99.90;;;;;;5086249;28;20859;-84
2020/12/06 01:19:18;;;;;;;12.10;8.80;;;4.30;99.90;;;;;;5104802;28;20393;-83
2020/12/06 01:21:53;;;;;;;24.33;10.77;;;4.30;99.90;;;;;;5105907;28;20753;-84
2020/12/06 01:24:19;;;;;;;18.50;9.60;;;4.30;99.90;;;;;;5107177;28;20471;-84
2020/12/06 01:26:47;;;;;;;19.40;10.43;;;4.30;99.90;;;;;;5108865;28;20400;-83
2020/12/06 01:29:13;;;;;;;16.97;11.40;;;4.30;99.90;;;;;;5058618;28;20363;-84
2020/12/06 01:31:45;;;;;;;13.47;9.23;;;4.30;99.90;;;;;;5061633;28;20426;-82
2020/12/06 01:34:11;;;;;;;15.23;9.57;;;4.30;99.90;;;;;;5047468;28;20390;-81
2020/12/06 01:36:37;;;;;;;13.40;10.23;;;4.30;99.90;;;;;;5042757;28;20776;-82
2020/12/06 01:39:03;;;;;;;17.83;10.60;;;4.30;99.90;;;;;;5042485;28;20185;-82
2020/12/06 01:41:29;;;;;;;20.40;11.67;;;4.30;99.90;;;;;;5040866;28;20538;-81
2020/12/06 01:43:56;;;;;;;15.93;11.13;;;4.30;99.90;;;;;;5041695;28;20443;-83
2020/12/06 01:46:24;;;;;;;14.13;9.57;;;4.30;99.90;;;;;;5043001;28;20453;-83
2020/12/06 01:48:51;;;;;;;15.53;10.97;;;4.30;99.90;;;;;;5041144;28;20448;-83
2020/12/06 01:51:18;;;;;;;16.50;10.57;;;4.30;99.90;;;;;;5041902;28;20389;-83
2020/12/06 01:53:47;;;;;;;15.70;10.93;;;4.30;99.90;;;;;;5042424;28;20406;-82
2020/12/06 01:56:13;;;;;;;16.33;10.47;;;4.30;99.90;;;;;;5042259;28;20405;-82
2020/12/06 01:58:39;;;;;;;17.10;9.93;;;4.30;99.90;;;;;;5042204;28;20355;-83
2020/12/06 02:01:08;;;;;;;16.10;8.87;;;4.30;99.90;;;;;;5040916;28;20366;-83
2020/12/06 02:03:33;;;;;;;17.60;9.77;;;4.30;99.90;;;;;;5058167;28;20822;-83
2020/12/06 02:05:59;;;;;;;12.90;9.83;;;4.30;99.90;;;;;;5095915;28;20423;-82
2020/12/06 02:08:26;;;;;;;18.33;11.20;;;4.30;99.90;;;;;;5105179;28;20161;-83
2020/12/06 02:10:52;;;;;;;20.57;10.17;;;4.30;99.90;;;;;;5105780;28;20419;-83
2020/12/06 02:13:21;;;;;;;20.97;10.83;;;4.30;99.90;;;;;;5103851;28;20505;-83
2020/12/06 02:15:47;;;;;;;15.10;8.57;;;4.30;99.90;;;;;;5051258;28;20163;-82
2020/12/06 02:18:14;;;;;;;12.00;8.67;;;4.30;99.90;;;;;;5082666;28;20415;-82
2020/12/06 02:20:40;;;;;;;16.50;9.80;;;4.30;99.90;;;;;;5102530;28;20400;-83
2020/12/06 02:23:06;;;;;;;15.80;10.43;;;4.30;99.90;;;;;;5082524;28;20413;-83
2020/12/06 02:25:36;;;;;;;19.23;10.33;;;4.20;99.90;;;;;;5083352;28;20465;-84
2020/12/06 02:28:05;;;;;;;18.93;12.87;;;4.20;99.90;;;;;;5103517;28;20611;-84
2020/12/06 02:30:31;;;;;;;22.17;11.83;;;4.20;99.90;;;;;;5101719;28;20731;-83
2020/12/06 02:33:03;;;;;;;15.40;8.93;;;4.20;99.90;;;;;;5101582;28;20486;-83
2020/12/06 02:35:29;;;;;;;14.10;10.43;;;4.20;99.90;;;;;;5050483;28;20439;-84
2020/12/06 02:37:55;;;;;;;16.93;10.33;;;4.10;99.90;;;;;;5102337;28;20436;-84
2020/12/06 02:40:21;;;;;;;17.37;11.13;;;4.20;99.90;;;;;;5102537;28;20396;-83
2020/12/06 02:42:46;;;;;;;16.60;10.27;;;4.10;99.90;;;;;;5102115;28;20201;-83
2020/12/06 02:45:12;;;;;;;20.23;11.80;;;4.10;99.90;;;;;;5102121;28;20443;-84
2020/12/06 02:47:41;;;;;;;21.33;12.63;;;4.10;99.90;;;;;;5101812;28;20523;-82
2020/12/06 02:50:07;;;;;;;19.27;11.03;;;4.10;99.90;;;;;;5101752;28;20408;-81
2020/12/06 02:52:32;;;;;;;18.57;10.23;;;4.20;99.90;;;;;;5102315;28;20155;-83
2020/12/06 02:54:58;;;;;;;15.97;10.57;;;4.20;99.90;;;;;;5101106;28;20416;-82
2020/12/06 02:57:27;;;;;;;17.13;11.20;;;4.20;99.90;;;;;;5100341;28;20167;-84
2020/12/06 02:59:53;;;;;;;22.73;12.47;;;4.20;99.90;;;;;;5082824;28;20171;-82
2020/12/06 03:02:19;;;;;;;22.13;13.43;;;4.20;99.90;;;;;;5080086;28;20410;-83
2020/12/06 03:04:45;;;;;;;13.97;10.17;;;4.20;99.90;;;;;;5097977;28;20209;-82
2020/12/06 03:07:11;;;;;;;22.63;11.03;;;4.20;99.90;;;;;;5099018;28;20159;-81
2020/12/06 03:09:36;;;;;;;24.57;10.80;;;4.20;99.90;;;;;;5098484;28;20388;-83
2020/12/06 03:12:02;;;;;;;19.77;11.10;;;4.10;99.90;;;;;;5097879;28;20218;-81
2020/12/06 03:14:28;;;;;;;19.43;11.87;;;4.10;99.90;;;;;;5079870;28;20181;-82
2020/12/06 03:16:54;;;;;;;18.30;10.23;;;4.10;99.90;;;;;;5098583;28;20179;-82
2020/12/06 03:19:21;;;;;;;16.97;10.30;;;4.20;99.90;;;;;;5036903;28;20287;-82
2020/12/06 03:21:46;;;;;;;25.13;11.60;;;4.20;99.90;;;;;;5036574;28;20710;-81
2020/12/06 03:24:12;;;;;;;18.20;11.17;;;4.20;99.90;;;;;;5037099;28;20493;-83
2020/12/06 03:26:38;;;;;;;25.73;10.77;;;4.10;99.90;;;;;;5036447;28;20208;-83
2020/12/06 03:29:04;;;;;;;18.07;8.93;;;4.10;99.90;;;;;;5037447;28;20177;-82
2020/12/06 03:31:30;;;;;;;17.97;12.27;;;4.10;99.90;;;;;;5037584;28;20181;-84
2020/12/06 03:33:55;;;;;;;19.40;10.10;;;4.10;99.90;;;;;;5037308;28;20258;-83
2020/12/06 03:36:21;;;;;;;16.70;9.80;;;4.10;99.90;;;;;;5037247;28;20252;-83
2020/12/06 03:38:47;;;;;;;21.27;10.63;;;4.10;99.90;;;;;;5037496;28;20193;-81
2020/12/06 03:41:13;;;;;;;17.07;9.90;;;4.10;99.90;;;;;;5037012;28;20165;-83
2020/12/06 03:43:39;;;;;;;16.90;11.00;;;4.10;99.90;;;;;;5038532;28;20184;-82
2020/12/06 03:46:04;;;;;;;21.10;13.70;;;4.10;99.90;;;;;;5040820;28;20527;-82
2020/12/06 03:48:30;;;;;;;26.67;13.23;;;4.10;99.90;;;;;;5040163;28;20397;-82
2020/12/06 03:50:56;;;;;;;16.30;9.80;;;4.10;99.90;;;;;;5088673;28;20174;-83
2020/12/06 03:53:21;;;;;;;17.07;11.30;;;4.10;99.90;;;;;;5101697;28;20151;-81
2020/12/06 03:55:48;;;;;;;19.03;12.70;;;4.10;99.90;;;;;;5102900;28;20250;-82
2020/12/06 03:58:13;;;;;;;29.83;12.23;;;4.10;99.90;;;;;;5083792;28;20158;-81
2020/12/06 04:00:39;;;;;;;15.30;11.10;;;4.10;99.90;;;;;;5102152;28;20417;-81
2020/12/06 04:03:05;;;;;;;13.07;10.37;;;4.20;99.90;;;;;;5101659;28;20182;-82
2020/12/06 04:05:31;;;;;;;21.30;13.00;;;4.20;99.90;;;;;;5101864;28;20193;-84
2020/12/06 04:07:56;;;;;;;27.43;13.00;;;4.20;99.90;;;;;;5101706;28;20571;-83
2020/12/06 04:10:22;;;;;;;24.73;13.43;;;4.20;99.90;;;;;;5101556;28;20614;-83
2020/12/06 04:12:48;;;;;;;20.27;11.73;;;4.20;99.90;;;;;;5102122;28;20293;-82
2020/12/06 04:15:14;;;;;;;21.00;10.40;;;4.20;99.90;;;;;;5101729;28;20158;-82
2020/12/06 04:17:40;;;;;;;19.03;11.00;;;4.20;99.90;;;;;;5101501;28;20181;-82
2020/12/06 04:20:07;;;;;;;17.83;10.77;;;4.20;99.90;;;;;;5102860;28;20206;-82
2020/12/06 04:22:33;;;;;;;18.43;11.17;;;4.20;99.90;;;;;;5084433;28;20391;-83
2020/12/06 04:24:59;;;;;;;14.70;10.43;;;4.30;99.90;;;;;;5101482;28;20907;-84
2020/12/06 04:27:24;;;;;;;18.57;11.63;;;4.30;99.90;;;;;;5101346;28;20367;-83
2020/12/06 04:29:50;;;;;;;17.70;12.00;;;4.30;99.90;;;;;;5101965;28;20197;-82
2020/12/06 04:32:16;;;;;;;24.10;14.90;;;4.30;99.90;;;;;;5100989;28;20182;-84
2020/12/06 04:34:45;;;;;;;19.67;12.07;;;4.20;99.90;;;;;;5101836;28;20165;-83
2020/12/06 04:37:12;;;;;;;22.30;12.43;;;4.20;99.90;;;;;;5102284;28;20159;-82
2020/12/06 04:39:38;;;;;;;14.30;10.53;;;4.20;99.90;;;;;;5102182;28;20387;-84
2020/12/06 04:42:04;;;;;;;16.13;11.10;;;4.20;99.90;;;;;;5102577;28;20367;-82
2020/12/06 04:44:30;;;;;;;16.43;10.70;;;4.20;99.90;;;;;;5102890;28;20191;-83
2020/12/06 04:47:00;;;;;;;16.37;11.70;;;4.30;99.90;;;;;;5086702;28;20380;-84
2020/12/06 04:49:42;;;;;;;14.53;10.30;;;4.30;99.90;;;;;;5095784;28;20416;-84
2020/12/06 04:52:15;;;;;;;14.03;10.43;;;4.30;99.90;;;;;;5103008;28;20390;-84
2020/12/06 04:54:42;;;;;;;22.37;12.83;;;4.30;99.90;;;;;;5102868;28;20368;-83
2020/12/06 04:57:11;;;;;;;15.93;11.10;;;4.30;99.90;;;;;;5103759;28;20360;-84
2020/12/06 04:59:42;;;;;;;21.33;12.27;;;4.30;99.90;;;;;;5083725;28;20508;-83
2020/12/06 05:02:10;;;;;;;18.97;10.27;;;4.30;99.90;;;;;;5095593;28;20899;-83
2020/12/06 05:04:42;;;;;;;19.80;13.83;;;4.30;99.90;;;;;;5101961;28;20418;-83
2020/12/06 05:07:09;;;;;;;14.50;10.27;;;4.30;99.90;;;;;;5101523;28;20454;-83
2020/12/06 05:09:36;;;;;;;26.97;13.27;;;4.20;99.90;;;;;;5101904;28;20706;-83
2020/12/06 05:12:04;;;;;;;19.93;9.87;;;4.20;99.90;;;;;;5101558;28;20427;-83
2020/12/06 05:14:30;;;;;;;19.77;12.33;;;4.20;99.90;;;;;;5083065;28;20380;-83
2020/12/06 05:16:56;;;;;;;22.97;13.70;;;4.20;99.90;;;;;;5101451;28;20398;-84
2020/12/06 05:19:26;;;;;;;22.53;14.13;;;4.10;99.90;;;;;;5102092;28;20502;-84
2020/12/06 05:21:52;;;;;;;18.27;11.30;;;3.80;99.90;;;;;;5102431;28;20408;-83
2020/12/06 05:24:18;;;;;;;21.97;11.87;;;3.90;99.90;;;;;;5102111;28;20434;-83
2020/12/06 05:26:44;;;;;;;21.00;13.67;;;4.00;99.90;;;;;;5102805;28;20359;-84
2020/12/06 05:29:12;;;;;;;18.87;11.23;;;4.00;99.90;;;;;;5103629;28;20728;-83
2020/12/06 05:31:38;;;;;;;22.20;10.90;;;4.00;99.90;;;;;;5102662;28;20421;-84
2020/12/06 05:34:04;;;;;;;22.80;12.43;;;4.00;99.90;;;;;;5104615;28;20406;-84
2020/12/06 05:36:30;;;;;;;19.83;13.40;;;4.00;99.90;;;;;;5106512;28;20155;-84
2020/12/06 05:38:56;;;;;;;20.33;10.90;;;4.00;99.90;;;;;;5106924;28;20586;-83
2020/12/06 05:41:21;;;;;;;19.53;13.63;;;4.00;99.90;;;;;;5087707;28;20630;-82
2020/12/06 05:43:47;;;;;;;17.47;10.97;;;4.10;99.90;;;;;;5099360;28;20253;-81
2020/12/06 05:46:15;;;;;;;22.40;12.90;;;4.10;99.90;;;;;;5099788;28;20610;-83
2020/12/06 05:48:42;;;;;;;23.03;13.63;;;4.10;99.90;;;;;;5100325;28;20182;-81
2020/12/06 05:51:09;;;;;;;20.07;12.17;;;4.10;99.90;;;;;;5099201;28;20399;-82
2020/12/06 05:53:36;;;;;;;22.93;12.10;;;4.10;99.90;;;;;;5099217;28;20724;-83
2020/12/06 05:56:20;;;;;;;22.40;12.80;;;4.10;99.90;;;;;;5099066;28;20400;-82
2020/12/06 05:58:48;;;;;;;20.53;12.83;;;4.10;99.90;;;;;;5099209;28;20407;-82
2020/12/06 06:01:16;;;;;;;22.40;13.93;;;4.10;99.90;;;;;;5100631;28;20760;-82
2020/12/06 06:03:46;;;;;;;25.03;13.37;;;4.10;99.90;;;;;;5099245;28;20447;-82
2020/12/06 06:06:36;;;;;;;17.30;11.07;;;4.10;99.90;;;;;;5064152;28;20401;-83
2020/12/06 06:09:02;;;;;;;20.77;13.77;;;4.10;99.90;;;;;;5099849;28;20434;-82
2020/12/06 06:11:29;;;;;;;17.43;10.83;;;4.10;99.90;;;;;;5099595;28;20448;-81
2020/12/06 06:13:58;;;;;;;29.50;13.37;;;4.10;99.90;;;;;;5099348;28;20491;-82
2020/12/06 06:16:27;;;;;;;21.30;16.50;;;4.10;99.90;;;;;;5099744;28;20887;-84
2020/12/06 06:18:55;;;;;;;19.80;11.83;;;4.10;99.90;;;;;;5099806;28;20424;-83
2020/12/06 06:21:26;;;;;;;18.90;12.27;;;4.10;99.90;;;;;;5100243;28;20407;-81
2020/12/06 06:23:53;;;;;;;21.53;11.20;;;4.10;99.90;;;;;;5100146;28;20500;-82
2020/12/06 06:26:22;;;;;;;20.10;9.63;;;4.10;99.90;;;;;;5098299;28;20537;-82
2020/12/06 06:28:51;;;;;;;23.20;13.60;;;4.10;99.90;;;;;;5098835;28;20364;-82
2020/12/06 06:31:19;;;;;;;16.93;11.80;;;4.00;99.90;;;;;;5098998;28;20857;-81
2020/12/06 06:33:49;;;;;;;18.00;11.37;;;4.00;99.90;;;;;;5054384;28;20420;-82
2020/12/06 06:36:20;;;;;;;27.90;14.63;;;4.00;99.90;;;;;;5046319;28;20450;-82
2020/12/06 06:38:47;;;;;;;20.90;11.33;;;4.00;99.90;;;;;;5098717;28;20380;-81
2020/12/06 06:41:13;;;;;;;23.50;12.87;;;4.00;99.90;;;;;;5080387;28;20413;-81
2020/12/06 06:43:41;;;;;;;21.00;12.60;;;4.00;99.90;;;;;;5099297;28;20712;-83
2020/12/06 06:46:13;;;;;;;19.07;12.33;;;4.10;99.90;;;;;;5099218;28;20422;-83
2020/12/06 06:48:39;;;;;;;15.43;12.27;;;4.10;99.90;;;;;;5099451;28;20493;-83
2020/12/06 06:51:05;;;;;;;25.10;13.83;;;4.10;99.90;;;;;;5099799;28;20750;-83
2020/12/06 06:53:32;;;;;;;22.10;13.40;;;4.10;99.90;;;;;;5081485;28;20386;-83
2020/12/06 06:56:00;;;;;;;20.10;14.07;;;4.10;99.90;;;;;;5100620;28;20428;-83
2020/12/06 06:58:30;;;;;;;22.53;12.03;;;4.10;99.90;;;;;;5100092;28;20397;-82
2020/12/06 07:01:23;;;;;;;19.43;12.07;;;4.10;99.90;;;;;;5100282;28;20371;-83
2020/12/06 07:03:51;;;;;;;20.37;13.23;;;4.10;99.90;;;;;;5080954;28;20403;-82
2020/12/06 07:06:43;;;;;;;25.73;15.03;;;4.10;99.90;;;;;;5099082;28;20793;-82
2020/12/06 07:09:09;;;;;;;26.23;13.00;;;4.10;99.90;;;;;;5081733;28;20965;-83
2020/12/06 07:11:38;;;;;;;23.67;13.77;;;4.10;99.90;;;;;;5100541;28;20448;-83
2020/12/06 07:14:04;;;;;;;18.93;12.80;;;4.00;99.90;;;;;;5100405;28;20170;-83
2020/12/06 07:16:29;;;;;;;19.17;13.43;;;4.10;99.90;;;;;;5101138;28;20406;-83
2020/12/06 07:18:55;;;;;;;21.80;13.67;;;4.10;99.90;;;;;;5105174;28;20186;-84
2020/12/06 07:21:21;;;;;;;29.57;17.30;;;4.10;99.90;;;;;;5104351;28;20197;-83
2020/12/06 07:23:47;;;;;;;19.37;12.97;;;4.10;99.90;;;;;;5108146;28;20174;-84
2020/12/06 07:26:13;;;;;;;23.07;13.37;;;4.10;99.90;;;;;;5107981;28;20216;-82
2020/12/06 07:28:38;;;;;;;22.10;13.60;;;4.10;99.90;;;;;;5107306;28;20159;-83
2020/12/06 07:31:04;;;;;;;22.57;14.20;;;4.10;99.90;;;;;;5114691;28;20435;-83
2020/12/06 07:33:30;;;;;;;19.83;12.73;;;4.00;99.90;;;;;;5118724;28;20154;-83
2020/12/06 07:35:56;;;;;;;20.30;14.23;;;4.00;99.90;;;;;;5109678;28;20181;-84
2020/12/06 07:38:21;;;;;;;21.20;12.87;;;4.10;99.90;;;;;;5108811;28;20259;-84
2020/12/06 07:40:47;;;;;;;16.30;11.60;;;4.00;99.90;;;;;;5110042;28;20178;-84
2020/12/06 07:43:14;;;;;;;17.60;13.37;;;4.10;99.90;;;;;;5112165;28;20167;-84
2020/12/06 07:45:40;;;;;;;18.13;11.70;;;4.00;99.90;;;;;;5091861;28;20505;-83
2020/12/06 07:48:06;;;;;;;19.93;13.30;;;4.10;99.90;;;;;;5109923;28;20393;-84
2020/12/06 07:50:32;;;;;;;19.07;11.47;;;4.10;99.90;;;;;;5072073;28;20175;-83
2020/12/06 07:53:02;;;;;;;17.53;13.00;;;4.10;99.90;;;;;;5095835;28;20400;-84
2020/12/06 07:55:28;;;;;;;23.73;15.10;;;4.10;99.90;;;;;;5107316;28;20196;-84
2020/12/06 07:57:57;;;;;;;28.40;17.63;;;4.10;99.90;;;;;;5108236;28;20363;-83
2020/12/06 08:00:36;;;;;;;26.27;15.87;;;4.10;99.90;;;;;;5107973;28;20189;-84
2020/12/06 08:03:04;;;;;;;20.23;14.50;;;4.20;99.90;;;;;;5108066;28;20406;-84
2020/12/06 08:05:34;;;;;;;21.70;12.27;;;4.20;99.90;;;;;;5107442;28;20422;-84
2020/12/06 08:08:07;;;;;;;27.90;15.80;;;4.10;99.90;;;;;;5108342;28;20773;-83
2020/12/06 08:10:35;;;;;;;17.67;12.13;;;4.00;99.90;;;;;;5108328;28;20364;-83
2020/12/06 08:13:01;;;;;;;22.40;13.33;;;4.10;99.90;;;;;;5108511;28;20371;-83
2020/12/06 08:15:28;;;;;;;25.27;13.17;;;4.00;99.90;;;;;;5089580;28;20395;-83
2020/12/06 08:17:55;;;;;;;18.83;12.63;;;4.00;99.90;;;;;;5106335;28;20477;-84
2020/12/06 08:20:23;;;;;;;21.73;15.20;;;4.00;99.90;;;;;;5107308;28;20409;-82
2020/12/06 08:22:53;;;;;;;19.87;13.13;;;4.10;99.90;;;;;;5109259;28;20400;-83
2020/12/06 08:25:23;;;;;;;27.23;14.53;;;4.20;99.90;;;;;;5107433;28;20459;-84
2020/12/06 08:27:51;;;;;;;21.13;15.53;;;4.30;99.90;;;;;;5109066;28;20404;-83
2020/12/06 08:30:19;;;;;;;24.10;12.70;;;4.30;99.90;;;;;;5104464;28;20394;-84
2020/12/06 08:33:04;;;;;;;23.30;13.87;;;4.30;99.90;;;;;;5105900;28;20398;-82
2020/12/06 08:35:40;;;;;;;20.70;13.67;;;4.30;99.90;;;;;;5039505;28;20417;-82
2020/12/06 08:38:29;;;;;;;19.47;13.10;;;4.30;99.90;;;;;;5066369;28;20884;-82
2020/12/06 08:41:03;;;;;;;21.93;13.70;;;4.40;99.90;;;;;;5082681;28;20409;-83
2020/12/06 08:44:01;;;;;;;20.90;12.77;;;4.40;99.90;;;;;;5104050;28;20873;-84
2020/12/06 08:46:29;;;;;;;18.50;11.97;;;4.40;99.90;;;;;;5103083;28;20364;-84
2020/12/06 08:48:58;;;;;;;29.53;13.87;;;4.40;99.90;;;;;;5102612;28;20409;-83
2020/12/06 08:51:29;;;;;;;29.23;15.20;;;4.50;99.90;;;;;;5103710;28;20363;-84
2020/12/06 08:53:56;;;;;;;27.03;15.00;;;4.50;99.90;;;;;;5103514;28;20409;-84
2020/12/06 08:56:31;;;;;;;21.33;13.53;;;4.50;99.90;;;;;;5103531;28;20413;-83
2020/12/06 08:59:07;;;;;;;15.60;11.70;;;4.40;99.90;;;;;;5103192;28;20412;-84
2020/12/06 09:01:45;;;;;;;19.27;12.87;;;4.40;99.90;;;;;;5084898;28;20366;-83
2020/12/06 09:04:10;;;;;;;28.93;15.90;;;4.30;99.90;;;;;;5103476;28;20459;-82
2020/12/06 09:06:38;;;;;;;21.47;14.87;;;4.30;99.90;;;;;;5104020;28;20368;-83
2020/12/06 09:09:04;;;;;;;20.40;14.33;;;4.40;99.90;;;;;;5105064;28;20580;-84
2020/12/06 09:11:29;;;;;;;19.83;13.30;;;4.50;99.90;;;;;;5105356;28;20456;-84
2020/12/06 09:13:55;;;;;;;19.73;12.17;;;4.40;99.90;;;;;;5106167;28;20375;-83
2020/12/06 09:16:21;;;;;;;31.53;14.90;;;4.30;99.90;;;;;;5106281;28;20151;-84
2020/12/06 09:18:47;;;;;;;24.57;13.53;;;4.30;99.90;;;;;;5088779;28;20177;-84
2020/12/06 09:21:14;;;;;;;25.23;14.83;;;4.20;99.90;;;;;;5109488;28;20197;-84
2020/12/06 09:23:41;;;;;;;19.80;14.80;;;4.10;99.90;;;;;;5101372;28;20151;-83
2020/12/06 09:26:07;;;;;;;30.17;17.50;;;4.10;99.90;;;;;;5119171;28;20462;-82
2020/12/06 09:28:34;;;;;;;21.90;15.50;;;4.00;99.90;;;;;;5119617;28;20405;-84
2020/12/06 09:31:01;;;;;;;24.47;15.43;;;3.80;99.90;;;;;;5102202;28;20182;-84
2020/12/06 09:33:27;;;;;;;28.20;16.73;;;4.00;99.90;;;;;;5102135;28;20397;-83
2020/12/06 09:35:53;;;;;;;19.30;13.70;;;4.00;99.90;;;;;;5116304;28;20427;-84
2020/12/06 09:38:19;;;;;;;20.90;13.43;;;4.00;99.90;;;;;;5119944;28;20409;-82
2020/12/06 09:40:45;;;;;;;25.97;14.40;;;3.90;99.90;;;;;;5101702;28;20405;-83
2020/12/06 09:43:11;;;;;;;24.67;15.60;;;3.90;99.90;;;;;;5118602;28;20393;-84
2020/12/06 09:45:37;;;;;;;23.90;14.80;;;3.80;99.90;;;;;;5117451;28;20229;-83
2020/12/06 09:48:04;;;;;;;21.70;13.97;;;3.70;99.90;;;;;;5098761;28;20190;-82
2020/12/06 09:50:30;;;;;;;22.90;12.83;;;3.90;99.90;;;;;;5117272;28;20460;-81
2020/12/06 09:52:56;;;;;;;24.80;13.40;;;3.90;99.90;;;;;;5117913;28;20385;-80
2020/12/06 09:55:22;;;;;;;17.17;14.27;;;3.80;99.90;;;;;;5110412;28;20371;-81
2020/12/06 09:57:48;;;;;;;28.10;15.57;;;3.80;99.90;;;;;;5095794;28;20154;-82
2020/12/06 10:00:14;;;;;;;25.33;15.30;;;3.90;99.90;;;;;;5088321;28;20462;-84
2020/12/06 10:02:40;;;;;;;26.70;14.40;;;4.00;99.90;;;;;;5086382;28;20404;-83
2020/12/06 10:05:06;;;;;;;28.73;15.13;;;4.10;99.90;;;;;;5088832;28;20422;-82
2020/12/06 10:07:32;;;;;;;21.67;13.70;;;4.30;99.90;;;;;;5086932;28;20384;-83
2020/12/06 10:09:58;;;;;;;29.80;16.70;;;4.50;99.90;;;;;;5109095;28;20407;-82
2020/12/06 10:12:24;;;;;;;22.03;16.07;;;4.40;99.90;;;;;;5081445;28;20448;-82
2020/12/06 10:14:50;;;;;;;20.00;14.70;;;4.30;99.90;;;;;;5113656;28;20166;-81
2020/12/06 10:17:16;;;;;;;19.93;12.43;;;4.30;99.90;;;;;;5084435;28;20166;-82
2020/12/06 10:19:41;;;;;;;19.13;13.17;;;4.10;99.90;;;;;;5085971;28;20198;-84
2020/12/06 10:22:07;;;;;;;28.20;14.67;;;4.10;99.90;;;;;;5102754;28;20368;-83
2020/12/06 10:24:33;;;;;;;26.20;13.93;;;4.20;99.90;;;;;;5103338;28;20253;-84
2020/12/06 10:26:59;;;;;;;17.93;13.33;;;4.10;99.90;;;;;;5086295;28;20155;-84
2020/12/06 10:29:25;;;;;;;25.03;15.17;;;4.00;99.90;;;;;;5100321;28;20193;-81
2020/12/06 10:31:53;;;;;;;21.20;14.53;;;4.00;99.90;;;;;;5051103;28;20151;-81
2020/12/06 10:34:23;;;;;;;26.53;15.30;;;4.10;99.90;;;;;;5086054;28;20416;-81
2020/12/06 10:36:51;;;;;;;19.60;13.97;;;4.20;99.90;;;;;;5086369;28;20392;-83
2020/12/06 10:39:18;;;;;;;21.73;14.40;;;4.00;99.90;;;;;;5038518;28;20513;-81
2020/12/06 10:41:47;;;;;;;21.50;13.93;;;3.90;99.90;;;;;;5020731;28;20888;-81
2020/12/06 10:44:15;;;;;;;19.23;11.67;;;3.80;99.90;;;;;;5036825;28;20462;-82
2020/12/06 10:46:41;;;;;;;22.40;12.97;;;3.80;99.90;;;;;;5021537;28;20426;-81
2020/12/06 10:49:13;;;;;;;17.73;10.93;;;3.70;99.90;;;;;;5007918;28;20934;-84
2020/12/06 10:51:44;;;;;;;20.00;14.20;;;3.80;99.90;;;;;;5036983;28;20764;-81
2020/12/06 10:54:11;;;;;;;20.13;12.90;;;3.80;99.90;;;;;;5036902;28;20477;-82
2020/12/06 10:56:44;;;;;;;23.00;13.10;;;3.80;99.90;;;;;;5035307;28;20468;-82
2020/12/06 10:59:10;;;;;;;22.90;15.07;;;3.80;99.90;;;;;;5022295;28;20415;-83
2020/12/06 11:01:36;;;;;;;25.17;15.33;;;3.80;99.90;;;;;;5021627;28;20442;-82
2020/12/06 11:04:04;;;;;;;22.83;15.00;;;3.70;99.90;;;;;;5036235;28;20493;-82
2020/12/06 11:06:30;;;;;;;29.70;15.30;;;3.60;99.90;;;;;;5020061;28;20898;-82
2020/12/06 11:08:56;;;;;;;20.73;15.23;;;3.80;99.90;;;;;;5037646;28;20410;-82
2020/12/06 11:11:24;;;;;;;20.67;13.10;;;3.50;99.90;;;;;;5029901;28;20433;-82
2020/12/06 11:13:50;;;;;;;23.00;14.33;;;3.50;99.90;;;;;;5076701;28;20731;-82
2020/12/06 11:16:18;;;;;;;28.33;15.60;;;3.40;99.90;;;;;;5079112;28;20369;-82
2020/12/06 11:18:45;;;;;;;21.87;16.03;;;3.30;99.90;;;;;;5078312;28;20420;-81
2020/12/06 11:21:11;;;;;;;23.90;13.60;;;3.20;99.90;;;;;;5078428;28;20475;-81
2020/12/06 11:23:37;;;;;;;22.63;13.03;;;3.30;99.90;;;;;;5077382;28;20711;-81
2020/12/06 11:26:03;;;;;;;26.00;14.63;;;3.30;99.90;;;;;;5078007;28;20809;-81
2020/12/06 11:28:29;;;;;;;14.67;10.80;;;3.20;99.90;;;;;;5078840;28;20155;-81
2020/12/06 11:30:54;;;;;;;21.03;14.33;;;3.30;99.90;;;;;;5078048;28;20418;-82
2020/12/06 11:33:23;;;;;;;24.80;14.97;;;3.40;99.90;;;;;;5078758;28;20160;-81
2020/12/06 11:35:49;;;;;;;24.97;14.80;;;3.20;99.90;;;;;;5077764;28;20186;-83
2020/12/06 11:38:15;;;;;;;24.80;14.57;;;3.40;99.90;;;;;;5077755;28;20368;-83
2020/12/06 11:40:41;;;;;;;20.50;14.30;;;3.40;99.90;;;;;;5061061;28;20191;-82
2020/12/06 11:43:10;;;;;;;24.27;14.47;;;3.50;99.90;;;;;;5060594;28;20761;-81
2020/12/06 11:45:36;;;;;;;24.40;14.67;;;3.40;99.90;;;;;;5058888;28;20766;-81
2020/12/06 11:48:03;;;;;;;26.40;15.60;;;3.50;99.90;;;;;;5040397;28;20388;-82
2020/12/06 11:50:39;;;;;;;32.77;15.83;;;3.40;99.90;;;;;;5040948;28;20456;-81
2020/12/06 11:53:05;;;;;;;20.90;14.43;;;3.50;99.90;;;;;;5020221;28;20374;-84
2020/12/06 11:55:31;;;;;;;23.13;15.73;;;3.50;99.90;;;;;;5017868;28;20430;-79
2020/12/06 11:57:57;;;;;;;28.83;16.73;;;3.60;99.90;;;;;;5002068;28;20177;-79
2020/12/06 12:00:23;;;;;;;28.50;17.37;;;3.50;99.90;;;;;;5038877;28;20172;-84
2020/12/06 12:02:49;;;;;;;19.23;15.10;;;3.40;99.90;;;;;;5005869;28;20547;-84
2020/12/06 12:05:15;;;;;;;24.80;14.97;;;3.30;99.90;;;;;;5027490;28;20287;-83
2020/12/06 12:07:42;;;;;;;21.70;13.80;;;3.40;99.90;;;;;;5029129;28;20236;-84
2020/12/06 12:10:08;;;;;;;26.03;16.97;;;3.50;99.90;;;;;;5045710;28;20362;-84
2020/12/06 12:12:38;;;;;;;20.93;13.43;;;3.60;99.90;;;;;;5014606;28;20492;-82
2020/12/06 12:15:05;;;;;;;31.73;17.40;;;3.50;99.90;;;;;;5015484;28;20935;-84
2020/12/06 12:17:33;;;;;;;28.23;17.27;;;3.50;99.90;;;;;;5063980;28;20472;-83
2020/12/06 12:20:00;;;;;;;33.50;18.70;;;3.60;99.90;;;;;;5016457;28;20408;-83
2020/12/06 12:22:26;;;;;;;23.90;15.87;;;3.80;99.90;;;;;;5049849;28;20402;-82
2020/12/06 12:24:52;;;;;;;34.27;17.20;;;3.90;99.90;;;;;;5078337;28;20434;-81
2020/12/06 12:27:18;;;;;;;29.73;15.77;;;3.60;99.90;;;;;;5068284;28;20426;-83
2020/12/06 12:29:44;;;;;;;30.20;16.57;;;3.60;99.90;;;;;;5079318;28;20850;-81
2020/12/06 12:32:10;;;;;;;30.17;18.30;;;3.60;99.90;;;;;;5079942;28;20254;-83
2020/12/06 12:34:36;;;;;;;29.73;16.50;;;3.60;99.90;;;;;;5045266;28;20452;-82
2020/12/06 12:37:02;;;;;;;25.67;16.97;;;3.60;99.90;;;;;;5079247;28;20159;-82
2020/12/06 12:39:28;;;;;;;37.47;17.27;;;3.50;99.90;;;;;;5062327;28;20455;-81